Time;durP1;ratioP1;P1;durP2;ratioP2;P2;SDS_P1;SDS_P2;PMS_P1;PMS_P2;Temp;Humidity;BMP_temperature;BMP_pressure;BME280_temperature;BME280_humidity;BME280_pressure;Samples;Min_cycle;Max_cycle;Signal;HPM_P1;HPM_P2
2023/08/17 00:02:04;;;;;;;4.53;4.07;;;;;;;21.99;88.32;100700.19;5045821;28;20472;-69
2023/08/17 00:04:30;;;;;;;4.82;4.32;;;;;;;22.00;88.52;100701.81;5046709;28;20123;-69
2023/08/17 00:06:55;;;;;;;5.30;4.75;;;;;;;22.01;88.22;100695.47;5047629;28;20493;-69
2023/08/17 00:09:20;;;;;;;4.90;4.38;;;;;;;21.99;88.20;100703.66;5048821;28;20182;-69
2023/08/17 00:11:46;;;;;;;4.63;4.20;;;;;;;22.02;87.85;100697.13;5046623;28;20064;-69
2023/08/17 00:14:12;;;;;;;6.03;4.47;;;;;;;22.01;87.78;100704.28;5043867;28;20431;-69
2023/08/17 00:16:38;;;;;;;4.43;4.10;;;;;;;22.03;88.09;100704.88;5047166;28;20042;-69
2023/08/17 00:19:03;;;;;;;3.97;3.67;;;;;;;22.03;87.64;100704.88;5054559;28;20033;-69
2023/08/17 00:21:29;;;;;;;6.22;4.43;;;;;;;21.97;88.73;100705.72;5048350;28;20065;-69
2023/08/17 00:23:54;;;;;;;7.07;5.07;;;;;;;21.86;89.23;100703.72;5046042;28;20029;-69
2023/08/17 00:26:20;;;;;;;5.80;4.40;;;;;;;21.71;90.25;100711.16;5050397;28;20039;-70
2023/08/17 00:28:45;;;;;;;7.18;4.15;;;;;;;21.64;91.19;100705.06;5050311;28;20024;-69
2023/08/17 00:31:11;;;;;;;4.95;4.55;;;;;;;21.57;91.00;100702.47;5042295;28;20025;-69
2023/08/17 00:33:36;;;;;;;5.70;4.28;;;;;;;21.58;90.99;100705.91;5047406;28;20380;-69
2023/08/17 00:36:02;;;;;;;7.38;5.13;;;;;;;21.52;91.22;100708.38;5047088;28;20048;-69
2023/08/17 00:38:27;;;;;;;6.00;4.47;;;;;;;21.52;91.40;100708.38;5051530;28;20025;-69
2023/08/17 00:40:54;;;;;;;6.63;4.70;;;;;;;21.53;91.19;100710.00;5052892;28;20115;-69
2023/08/17 00:43:19;;;;;;;7.07;5.05;;;;;;;21.58;90.79;100704.09;5051702;28;20088;-69
2023/08/17 00:45:46;;;;;;;5.22;4.03;;;;;;;21.63;90.87;100711.41;5050457;28;20025;-69
2023/08/17 00:48:13;;;;;;;4.97;4.13;;;;;;;21.68;90.21;100712.41;5042727;28;20033;-69
2023/08/17 00:50:40;;;;;;;6.05;4.95;;;;;;;21.67;90.04;100715.25;5051027;28;20765;-69
2023/08/17 00:53:06;;;;;;;4.53;4.13;;;;;;;21.67;90.00;100721.38;5046189;28;20477;-69
2023/08/17 00:55:33;;;;;;;7.35;4.40;;;;;;;21.64;90.64;100710.38;5048329;28;20381;-69
2023/08/17 00:57:58;;;;;;;5.60;5.15;;;;;;;21.63;90.25;100714.88;5050859;28;20033;-69
2023/08/17 01:00:26;;;;;;;5.85;5.03;;;;;;;21.62;90.11;100717.72;5052241;28;20047;-69
2023/08/17 01:02:53;;;;;;;7.82;5.43;;;;;;;21.58;90.27;100721.81;5050743;28;20040;-69
2023/08/17 01:05:19;;;;;;;6.65;4.45;;;;;;;21.52;90.68;100721.63;5054549;28;20404;-69
2023/08/17 01:07:45;;;;;;;5.55;5.00;;;;;;;21.51;91.27;100721.84;5053240;28;20020;-69
2023/08/17 01:10:10;;;;;;;4.88;4.47;;;;;;;21.46;91.44;100719.81;5042732;28;20456;-69
2023/08/17 01:12:38;;;;;;;7.63;4.32;;;;;;;21.47;91.01;100716.16;5051090;28;20112;-69
2023/08/17 01:15:24;;;;;;;6.13;4.70;;;;;;;21.45;92.10;100720.84;5049892;28;20021;-69
2023/08/17 01:18:19;;;;;;;6.47;4.57;;;;;;;21.48;91.82;100717.78;5050389;28;20032;-69
2023/08/17 01:20:46;;;;;;;4.63;4.15;;;;;;;21.47;91.37;100723.28;5051778;28;20444;-69
2023/08/17 01:23:11;;;;;;;6.53;4.72;;;;;;;21.47;91.26;100721.44;5049326;28;20107;-69
2023/08/17 01:25:37;;;;;;;5.38;4.85;;;;;;;21.47;91.50;100725.94;5050748;28;20171;-69
2023/08/17 01:28:03;;;;;;;5.72;5.00;;;;;;;21.45;91.37;100726.16;5051640;28;20079;-69
2023/08/17 01:30:33;;;;;;;6.20;4.95;;;;;;;21.46;91.28;100725.13;5049882;28;20029;-69
2023/08/17 01:33:06;;;;;;;5.75;5.15;;;;;;;21.45;91.51;100712.06;5051945;28;20154;-69
2023/08/17 01:35:38;;;;;;;5.43;4.90;;;;;;;21.46;91.31;100717.16;5050076;28;20385;-69
2023/08/17 01:38:09;;;;;;;7.70;4.57;;;;;;;21.42;91.60;100718.63;5040638;28;20039;-69
2023/08/17 01:40:35;;;;;;;6.03;5.10;;;;;;;21.36;91.77;100718.63;5046598;28;20316;-69
2023/08/17 01:43:05;;;;;;;7.53;4.95;;;;;;;21.31;92.14;100726.38;5050337;28;20029;-69
2023/08/17 01:45:30;;;;;;;7.28;5.07;;;;;;;21.34;92.31;100724.13;5050549;28;20120;-69
2023/08/17 01:47:56;;;;;;;6.45;5.60;;;;;;;21.21;92.94;100726.84;5050018;28;20124;-69
2023/08/17 01:50:22;;;;;;;6.65;4.68;;;;;;;21.08;93.85;100732.94;5050383;28;20484;-69
2023/08/17 01:52:47;;;;;;;4.57;4.18;;;;;;;20.98;94.38;100726.44;5053267;28;20083;-69
2023/08/17 01:55:12;;;;;;;5.32;4.90;;;;;;;20.96;94.40;100731.94;5050348;28;20063;-69
2023/08/17 01:57:38;;;;;;;6.43;5.32;;;;;;;20.94;94.33;100726.03;5053432;28;20021;-69
2023/08/17 02:00:05;;;;;;;5.30;4.88;;;;;;;20.95;94.59;100724.19;5049716;28;20033;-69
2023/08/17 02:02:31;;;;;;;6.57;5.28;;;;;;;20.95;94.41;100718.91;5049795;28;20029;-69
2023/08/17 02:04:56;;;;;;;9.00;5.18;;;;;;;20.96;94.73;100712.59;5055820;28;20024;-69
2023/08/17 02:07:22;;;;;;;6.85;5.28;;;;;;;20.93;94.48;100707.69;5049145;28;20480;-69
2023/08/17 02:09:47;;;;;;;6.03;4.72;;;;;;;20.90;95.14;100714.22;5048390;28;20063;-69
2023/08/17 02:12:12;;;;;;;6.70;5.10;;;;;;;20.96;94.60;100708.09;5046150;28;20056;-69
2023/08/17 02:14:38;;;;;;;4.80;4.40;;;;;;;20.99;94.54;100709.53;5051338;28;20078;-69
2023/08/17 02:17:05;;;;;;;5.70;5.10;;;;;;;21.02;94.26;100712.59;5049535;28;20033;-68
2023/08/17 02:19:31;;;;;;;5.35;4.85;;;;;;;21.04;94.34;100715.84;5050711;28;20439;-69
2023/08/17 02:21:56;;;;;;;5.95;5.03;;;;;;;21.05;94.01;100711.34;5047336;28;20029;-69
2023/08/17 02:24:22;;;;;;;5.20;4.65;;;;;;;21.02;93.95;100707.28;5050524;28;20031;-69
2023/08/17 02:26:47;;;;;;;5.35;4.78;;;;;;;20.98;94.35;100705.25;5044672;28;20044;-69
2023/08/17 02:29:13;;;;;;;5.68;5.18;;;;;;;20.95;94.19;100705.66;5053776;28;20083;-68
2023/08/17 02:31:38;;;;;;;5.78;5.28;;;;;;;20.93;94.70;100705.88;5052343;28;20037;-69
2023/08/17 02:34:05;;;;;;;8.02;4.78;;;;;;;20.98;94.23;100706.06;5054698;28;20426;-69
2023/08/17 02:36:31;;;;;;;5.55;4.38;;;;;;;21.06;93.34;100705.03;5053433;28;20057;-69
2023/08/17 02:38:56;;;;;;;5.45;4.57;;;;;;;21.14;93.15;100702.16;5050261;28;20028;-69
2023/08/17 02:41:22;;;;;;;5.30;4.80;;;;;;;21.18;92.92;100700.72;5046140;28;20028;-69
2023/08/17 02:43:47;;;;;;;9.57;4.80;;;;;;;21.21;92.33;100700.34;5051101;28;20495;-69
2023/08/17 02:46:13;;;;;;;6.57;4.88;;;;;;;21.23;93.02;100692.19;5045986;28;20479;-69
2023/08/17 02:48:38;;;;;;;11.32;4.82;;;;;;;21.16;93.17;100703.59;5049680;28;20033;-69
2023/08/17 02:51:04;;;;;;;9.63;5.38;;;;;;;21.06;93.72;100697.09;5046605;28;20025;-68
2023/08/17 02:53:29;;;;;;;5.10;4.45;;;;;;;20.96;94.17;100694.88;5038461;28;20029;-69
2023/08/17 02:55:55;;;;;;;4.95;4.55;;;;;;;20.92;94.47;100690.19;5049012;28;20614;-69
2023/08/17 02:58:20;;;;;;;5.30;4.80;;;;;;;20.91;94.66;100693.84;5048675;28;20029;-69
2023/08/17 03:00:46;;;;;;;5.38;4.88;;;;;;;20.87;94.86;100688.97;5043240;28;20037;-69
2023/08/17 03:03:11;;;;;;;6.50;5.22;;;;;;;20.87;94.60;100688.97;5051369;28;20112;-69
2023/08/17 03:05:37;;;;;;;7.70;5.30;;;;;;;20.86;94.90;100692.63;5045848;28;20476;-69
2023/08/17 03:08:03;;;;;;;5.38;4.97;;;;;;;20.87;94.78;100691.63;5047837;28;20037;-69
2023/08/17 03:10:29;;;;;;;5.80;5.13;;;;;;;20.90;94.22;100693.03;5049979;28;20032;-69
2023/08/17 03:12:55;;;;;;;8.95;5.93;;;;;;;20.91;94.49;100684.06;5051281;28;20027;-69
2023/08/17 03:15:20;;;;;;;5.78;4.63;;;;;;;20.97;94.17;100690.38;5041948;28;20144;-69
2023/08/17 03:17:46;;;;;;;5.28;4.78;;;;;;;20.96;94.03;100688.75;5050375;28;20033;-69
2023/08/17 03:20:11;;;;;;;8.05;5.15;;;;;;;20.98;93.64;100694.66;5037929;28;20392;-69
2023/08/17 03:22:37;;;;;;;5.20;4.57;;;;;;;20.95;94.11;100681.81;5036099;28;20036;-69
2023/08/17 03:25:02;;;;;;;7.20;5.07;;;;;;;20.92;94.11;100685.69;5037382;28;20041;-69
2023/08/17 03:27:28;;;;;;;5.97;4.55;;;;;;;20.87;94.56;100682.84;5036363;28;20477;-69
2023/08/17 03:29:54;;;;;;;5.57;4.75;;;;;;;20.83;94.67;100677.16;5036033;28;20079;-69
2023/08/17 03:32:19;;;;;;;5.88;5.35;;;;;;;20.81;94.88;100673.91;5041759;28;20128;-69
2023/08/17 03:34:45;;;;;;;8.45;5.32;;;;;;;20.79;95.19;100683.09;5047019;28;20041;-69
2023/08/17 03:37:11;;;;;;;6.70;4.63;;;;;;;20.78;95.29;100684.94;5051465;28;20388;-69
2023/08/17 03:39:37;;;;;;;8.43;4.88;;;;;;;20.82;94.54;100686.13;5052944;28;20033;-69
2023/08/17 03:42:02;;;;;;;6.75;4.40;;;;;;;20.93;93.95;100686.50;5056593;28;20032;-69
2023/08/17 03:44:28;;;;;;;6.63;4.53;;;;;;;20.96;93.91;100680.81;5057299;28;20540;-69
2023/08/17 03:46:53;;;;;;;5.47;4.18;;;;;;;20.94;93.96;100678.38;5051240;28;20112;-69
2023/08/17 03:49:19;;;;;;;5.35;4.85;;;;;;;20.91;94.09;100683.25;5056399;28;20142;-68
2023/08/17 03:51:45;;;;;;;5.40;4.85;;;;;;;20.90;94.06;100681.63;5056335;28;20116;-69
2023/08/17 03:54:12;;;;;;;4.85;4.32;;;;;;;20.83;94.29;100693.03;5047423;28;20025;-69
2023/08/17 03:56:37;;;;;;;7.40;4.53;;;;;;;20.83;94.44;100687.75;5048199;28;20037;-69
2023/08/17 03:59:03;;;;;;;6.65;4.53;;;;;;;20.86;94.16;100689.16;5050491;28;20033;-69
2023/08/17 04:01:29;;;;;;;11.50;4.72;;;;;;;20.85;94.21;100685.72;5052455;28;20029;-69
2023/08/17 04:03:54;;;;;;;4.75;4.35;;;;;;;20.86;94.15;100689.16;5053097;28;20120;-68
2023/08/17 04:06:20;;;;;;;6.03;5.13;;;;;;;20.84;94.74;100691.22;5052518;28;20033;-69
2023/08/17 04:08:46;;;;;;;6.53;5.25;;;;;;;20.86;94.22;100695.28;5051041;28;20373;-69
2023/08/17 04:11:11;;;;;;;5.80;4.68;;;;;;;20.79;95.02;100691.84;5048726;28;20587;-69
2023/08/17 04:13:37;;;;;;;5.95;4.68;;;;;;;20.71;95.43;100697.34;5060581;28;20028;-69
2023/08/17 04:16:02;;;;;;;5.22;4.68;;;;;;;20.64;96.15;100696.53;5051469;28;20322;-69
2023/08/17 04:18:28;;;;;;;5.85;5.28;;;;;;;20.64;96.09;100699.19;5051663;28;20037;-69
2023/08/17 04:20:53;;;;;;;6.10;5.47;;;;;;;20.66;95.67;100699.00;5051526;28;20028;-69
2023/08/17 04:23:19;;;;;;;5.45;4.90;;;;;;;20.68;95.96;100700.41;5055340;28;20031;-69
2023/08/17 04:25:44;;;;;;;8.90;5.10;;;;;;;20.68;96.20;100692.47;5051588;28;20044;-69
2023/08/17 04:28:10;;;;;;;6.45;5.53;;;;;;;20.71;95.85;100693.91;5048390;28;20033;-69
2023/08/17 04:30:37;;;;;;;5.00;4.50;;;;;;;20.78;95.50;100692.88;5055292;28;20033;-69
2023/08/17 04:33:02;;;;;;;5.57;5.07;;;;;;;20.85;94.55;100693.66;5050493;28;20029;-69
2023/08/17 04:35:28;;;;;;;5.45;4.95;;;;;;;20.92;94.51;100708.72;5055141;28;20037;-69
2023/08/17 04:37:53;;;;;;;4.97;4.50;;;;;;;20.91;94.47;100701.78;5049946;28;20107;-69
2023/08/17 04:40:18;;;;;;;6.68;4.72;;;;;;;20.84;95.00;100702.63;5047749;28;20052;-69
2023/08/17 04:42:44;;;;;;;6.43;5.57;;;;;;;20.80;95.18;100704.03;5050599;28;20046;-69
2023/08/17 04:45:10;;;;;;;5.60;5.10;;;;;;;20.77;95.70;100704.50;5054420;28;20473;-69
2023/08/17 04:47:35;;;;;;;8.85;5.57;;;;;;;20.65;96.48;100695.53;5051615;28;20028;-69
2023/08/17 04:50:00;;;;;;;6.18;5.53;;;;;;;20.62;97.09;100695.94;5054028;28;20036;-69
2023/08/17 04:52:26;;;;;;;6.10;5.50;;;;;;;20.57;97.35;100701.03;5045316;28;20072;-69
2023/08/17 04:54:51;;;;;;;7.57;4.85;;;;;;;20.57;97.28;100702.84;5048568;28;20082;-69
2023/08/17 04:57:18;;;;;;;6.82;5.28;;;;;;;20.59;97.85;100706.13;5050335;28;20107;-68
2023/08/17 04:59:44;;;;;;;8.85;5.30;;;;;;;20.56;98.01;100707.34;5047562;28;20032;-68
2023/08/17 05:02:09;;;;;;;6.43;5.57;;;;;;;20.51;98.54;100715.88;5053526;28;20025;-68
2023/08/17 05:04:35;;;;;;;6.50;5.03;;;;;;;20.51;98.15;100715.06;5053438;28;20048;-67
2023/08/17 05:07:01;;;;;;;6.72;5.15;;;;;;;20.61;97.66;100720.78;5050480;28;20024;-67
2023/08/17 05:09:27;;;;;;;5.45;5.03;;;;;;;20.68;97.85;100724.25;5049822;28;20064;-67
2023/08/17 05:11:52;;;;;;;6.47;5.47;;;;;;;20.69;97.98;100730.34;5048115;28;20377;-67
2023/08/17 05:14:18;;;;;;;5.80;5.30;;;;;;;20.72;97.84;100725.47;5055830;28;20032;-67
2023/08/17 05:16:43;;;;;;;5.60;5.10;;;;;;;20.73;97.58;100728.94;5050548;28;20091;-67
2023/08/17 05:19:09;;;;;;;5.53;4.97;;;;;;;20.76;97.41;100726.69;5051588;28;20086;-67
2023/08/17 05:21:36;;;;;;;5.63;5.13;;;;;;;20.78;97.52;100727.28;5055804;28;20090;-67
2023/08/17 05:24:01;;;;;;;5.93;4.85;;;;;;;20.86;97.14;100727.06;5049442;28;20029;-67
2023/08/17 05:26:27;;;;;;;5.47;4.95;;;;;;;20.99;96.08;100733.38;5050491;28;20041;-67
2023/08/17 05:28:52;;;;;;;6.63;4.85;;;;;;;21.11;95.08;100731.72;5048769;28;20024;-68
2023/08/17 05:31:18;;;;;;;5.60;5.10;;;;;;;21.18;94.41;100729.88;5040628;28;20385;-68
2023/08/17 05:33:43;;;;;;;5.18;4.45;;;;;;;21.24;94.47;100730.91;5052110;28;20364;-68
2023/08/17 05:36:09;;;;;;;6.35;4.80;;;;;;;21.28;93.87;100732.91;5050994;28;20044;-69
2023/08/17 05:38:34;;;;;;;5.57;4.72;;;;;;;21.36;93.62;100734.53;5056314;28;20029;-68
2023/08/17 05:41:01;;;;;;;6.32;4.97;;;;;;;21.41;93.00;100742.69;5045272;28;20033;-68
2023/08/17 05:43:27;;;;;;;6.25;5.00;;;;;;;21.44;93.15;100743.06;5050055;28;20437;-68
2023/08/17 05:45:53;;;;;;;5.40;4.63;;;;;;;21.44;93.19;100739.59;5047260;28;20162;-68
2023/08/17 05:48:20;;;;;;;6.20;5.32;;;;;;;21.50;92.99;100741.44;5040443;28;20025;-69
2023/08/17 05:50:46;;;;;;;7.38;4.75;;;;;;;21.61;93.02;100742.63;5042462;28;20025;-69
2023/08/17 05:53:12;;;;;;;5.00;4.60;;;;;;;21.56;93.17;100737.13;5048382;28;20428;-69
2023/08/17 05:55:37;;;;;;;5.57;5.00;;;;;;;21.56;93.05;100737.94;5043507;28;20110;-69
2023/08/17 05:58:03;;;;;;;9.02;5.03;;;;;;;21.56;93.34;100734.47;5035786;28;20481;-68
2023/08/17 06:00:29;;;;;;;6.00;4.88;;;;;;;21.60;92.94;100741.81;5050730;28;20036;-69
2023/08/17 06:03:00;;;;;;;6.93;4.50;;;;;;;21.71;92.17;100743.00;5052873;28;20033;-68
2023/08/17 06:05:29;;;;;;;5.05;4.57;;;;;;;21.72;91.81;100734.00;5049933;28;20056;-68
2023/08/17 06:07:58;;;;;;;6.22;4.43;;;;;;;21.76;91.72;100738.66;5049570;28;20126;-67
2023/08/17 06:10:27;;;;;;;4.78;4.38;;;;;;;21.82;91.48;100737.81;5050365;28;20029;-65
2023/08/17 06:12:53;;;;;;;5.80;5.00;;;;;;;21.99;91.60;100732.03;5049115;28;20381;-65
2023/08/17 06:15:19;;;;;;;5.40;4.90;;;;;;;22.09;91.35;100729.75;5047942;28;20029;-66
2023/08/17 06:17:45;;;;;;;5.53;4.78;;;;;;;22.15;91.37;100726.25;5050170;28;20036;-66
2023/08/17 06:20:11;;;;;;;6.03;4.63;;;;;;;22.27;90.65;100727.16;5049525;28;20028;-66
2023/08/17 06:22:37;;;;;;;4.60;4.20;;;;;;;22.40;90.48;100726.28;5048961;28;20036;-66
2023/08/17 06:25:04;;;;;;;4.55;4.15;;;;;;;22.51;89.82;100725.56;5049459;28;20029;-66
2023/08/17 06:27:30;;;;;;;9.30;4.65;;;;;;;22.65;89.67;100732.41;5049858;28;20116;-66
2023/08/17 06:29:56;;;;;;;7.07;4.47;;;;;;;22.59;89.32;100732.47;5049175;28;20112;-65
2023/08/17 06:32:21;;;;;;;4.60;3.85;;;;;;;22.50;89.20;100732.72;5048900;28;20368;-66
2023/08/17 06:34:47;;;;;;;4.50;4.10;;;;;;;22.51;89.70;100730.88;5050775;28;20051;-66
2023/08/17 06:37:12;;;;;;;6.00;4.82;;;;;;;22.57;88.90;100721.25;5049606;28;20039;-66
2023/08/17 06:39:37;;;;;;;7.53;4.38;;;;;;;22.66;88.44;100725.25;5040330;28;20554;-66
2023/08/17 06:42:03;;;;;;;5.55;4.40;;;;;;;22.74;88.35;100723.13;5050716;28;20442;-66
2023/08/17 06:44:30;;;;;;;4.50;4.10;;;;;;;22.84;87.93;100723.47;5049872;28;20029;-66
2023/08/17 06:46:56;;;;;;;4.75;3.92;;;;;;;22.97;87.48;100725.19;5049246;28;20104;-66
2023/08/17 06:49:22;;;;;;;4.57;4.18;;;;;;;23.12;86.39;100719.53;5045510;28;20547;-66
2023/08/17 06:51:47;;;;;;;7.18;4.38;;;;;;;23.23;85.80;100717.97;5048788;28;20046;-66
2023/08/17 06:54:13;;;;;;;6.88;4.57;;;;;;;23.38;84.80;100724.53;5048783;28;20132;-65
2023/08/17 06:56:38;;;;;;;5.18;4.18;;;;;;;23.44;84.50;100720.19;5051856;28;20123;-66
2023/08/17 06:59:04;;;;;;;4.80;4.40;;;;;;;23.59;84.32;100714.53;5049797;28;20036;-66
2023/08/17 07:01:29;;;;;;;4.45;3.83;;;;;;;23.66;84.26;100716.03;5049869;28;20032;-66
2023/08/17 07:03:55;;;;;;;5.82;4.60;;;;;;;23.76;84.35;100715.50;5050951;28;20048;-66
2023/08/17 07:06:21;;;;;;;6.45;5.05;;;;;;;23.90;84.22;100716.97;5055967;28;20108;-66
2023/08/17 07:08:46;;;;;;;4.38;3.85;;;;;;;23.96;83.37;100715.25;5048694;28;20116;-66
2023/08/17 07:11:12;;;;;;;4.15;3.83;;;;;;;24.03;82.98;100719.44;5045690;28;20027;-67
2023/08/17 07:13:37;;;;;;;4.45;4.05;;;;;;;24.10;82.17;100722.00;5056754;28;20037;-67
2023/08/17 07:16:03;;;;;;;4.78;4.28;;;;;;;24.12;82.03;100723.38;5043983;28;20037;-67
2023/08/17 07:18:28;;;;;;;5.05;3.85;;;;;;;24.19;82.11;100722.47;5044919;28;20025;-67
2023/08/17 07:20:53;;;;;;;5.82;4.65;;;;;;;24.24;82.14;100727.94;5058103;28;20484;-67
2023/08/17 07:23:19;;;;;;;6.03;4.35;;;;;;;24.33;81.87;100726.59;5050487;28;20473;-67
2023/08/17 07:25:44;;;;;;;7.18;4.68;;;;;;;24.40;80.77;100729.97;5038109;28;20079;-67
2023/08/17 07:28:10;;;;;;;4.10;3.78;;;;;;;24.51;80.48;100731.84;5040974;28;20035;-67
2023/08/17 07:30:35;;;;;;;4.22;3.83;;;;;;;24.58;80.24;100727.19;5051984;28;20170;-66
2023/08/17 07:33:01;;;;;;;3.75;3.45;;;;;;;24.62;80.00;100736.34;5042896;28;20029;-66
2023/08/17 07:35:26;;;;;;;6.65;4.07;;;;;;;24.77;79.37;100730.56;5046107;28;20045;-66
2023/08/17 07:37:52;;;;;;;4.25;3.63;;;;;;;24.88;78.10;100723.63;5049057;28;20051;-69
2023/08/17 07:40:17;;;;;;;4.65;4.25;;;;;;;25.06;77.84;100728.84;5054956;28;20480;-66
2023/08/17 07:42:43;;;;;;;5.03;3.67;;;;;;;25.11;77.63;100726.28;5050042;28;20029;-66
2023/08/17 07:45:09;;;;;;;6.38;3.78;;;;;;;25.19;77.43;100727.78;5043996;28;20534;-66
2023/08/17 07:47:37;;;;;;;4.82;3.92;;;;;;;25.39;76.07;100733.56;5038040;28;20024;-66
2023/08/17 07:50:04;;;;;;;7.05;5.22;;;;;;;25.46;76.04;100732.38;5041641;28;20033;-66
2023/08/17 07:52:30;;;;;;;4.22;3.58;;;;;;;25.60;75.27;100740.09;5041610;28;20042;-67
2023/08/17 07:54:55;;;;;;;5.00;3.90;;;;;;;25.69;75.85;100731.53;5049810;28;20048;-65
2023/08/17 07:57:21;;;;;;;5.70;4.05;;;;;;;25.64;76.54;100742.09;5039955;28;20041;-67
2023/08/17 07:59:46;;;;;;;6.80;4.13;;;;;;;25.71;76.56;100744.63;5056932;28;20064;-67
2023/08/17 08:02:12;;;;;;;4.85;3.35;;;;;;;25.77;76.85;100736.47;5038893;28;20048;-67
2023/08/17 08:04:37;;;;;;;5.95;4.45;;;;;;;25.89;77.03;100733.78;5037910;28;20052;-67
2023/08/17 08:07:03;;;;;;;4.80;4.38;;;;;;;25.95;76.84;100729.34;5046299;28;20361;-67
2023/08/17 08:09:28;;;;;;;4.45;3.83;;;;;;;26.14;76.38;100733.41;5044523;28;20476;-68
2023/08/17 08:11:54;;;;;;;6.78;4.43;;;;;;;26.36;75.39;100736.22;5047141;28;20059;-67
2023/08/17 08:14:19;;;;;;;4.82;4.20;;;;;;;26.48;73.32;100728.91;5050469;28;20021;-67
2023/08/17 08:16:45;;;;;;;5.85;4.35;;;;;;;26.57;73.70;100727.47;5035054;28;20107;-68
2023/08/17 08:19:10;;;;;;;9.55;4.82;;;;;;;26.74;73.55;100727.47;5031958;28;20143;-67
2023/08/17 08:21:35;;;;;;;5.80;4.22;;;;;;;26.82;72.91;100724.38;5034366;28;20099;-67
2023/08/17 08:24:01;;;;;;;4.50;3.88;;;;;;;26.95;73.06;100721.34;5030628;28;20083;-67
2023/08/17 08:26:26;;;;;;;5.65;4.22;;;;;;;27.09;71.19;100724.50;5040592;28;20055;-67
2023/08/17 08:28:52;;;;;;;4.50;3.90;;;;;;;27.23;70.38;100728.44;5047150;28;20499;-67
2023/08/17 08:31:17;;;;;;;3.97;3.67;;;;;;;27.42;70.41;100719.03;5049095;28;20457;-67
2023/08/17 08:33:43;;;;;;;5.10;4.60;;;;;;;27.60;70.18;100717.13;5037058;28;20098;-65
2023/08/17 08:36:09;;;;;;;6.30;4.70;;;;;;;27.67;70.92;100723.09;5036597;28;20099;-68
2023/08/17 08:38:34;;;;;;;5.45;3.97;;;;;;;27.73;71.18;100714.88;5041825;28;20029;-68
2023/08/17 08:41:02;;;;;;;4.43;3.88;;;;;;;27.84;69.70;100721.16;5052902;28;20037;-67
2023/08/17 08:43:28;;;;;;;5.28;3.70;;;;;;;27.95;67.58;100716.69;5031200;28;20047;-67
2023/08/17 08:45:54;;;;;;;5.32;4.00;;;;;;;27.97;67.40;100715.38;5040128;28;20372;-65
2023/08/17 08:48:22;;;;;;;4.00;3.60;;;;;;;27.93;68.45;100713.44;5031269;28;20117;-67
2023/08/17 08:50:50;;;;;;;3.95;3.50;;;;;;;27.87;68.07;100712.63;5037467;28;20029;-67
2023/08/17 08:53:17;;;;;;;3.35;3.03;;;;;;;27.86;67.68;100716.34;5047571;28;20036;-66
2023/08/17 08:55:58;;;;;;;5.13;3.40;;;;;;;27.95;65.52;100717.47;5044955;28;20080;-67
2023/08/17 08:58:25;;;;;;;3.45;3.15;;;;;;;28.18;64.46;100711.00;5048281;28;20055;-65
2023/08/17 09:00:50;;;;;;;3.85;3.30;;;;;;;28.10;65.72;100708.78;5037299;28;20116;-65
2023/08/17 09:03:18;;;;;;;3.40;2.95;;;;;;;27.97;64.65;100704.66;5031515;28;20117;-67
2023/08/17 09:05:47;;;;;;;3.38;3.08;;;;;;;27.93;65.71;100714.25;5038887;28;20111;-70
2023/08/17 09:08:14;;;;;;;5.10;2.58;;;;;;;27.92;65.68;100712.63;5038525;28;20041;-66
2023/08/17 09:10:41;;;;;;;4.43;2.97;;;;;;;27.96;65.69;100703.03;5040528;28;20032;-66
2023/08/17 09:13:08;;;;;;;3.05;2.50;;;;;;;27.88;65.63;100705.38;5050407;28;20409;-66
2023/08/17 09:15:34;;;;;;;3.97;2.70;;;;;;;27.77;66.01;100707.16;5033642;28;20126;-65
2023/08/17 09:17:59;;;;;;;4.30;2.70;;;;;;;27.82;64.59;100709.88;5035677;28;20037;-65
2023/08/17 09:20:41;;;;;;;5.47;2.85;;;;;;;27.89;64.83;100697.06;5036988;28;20464;-65
2023/08/17 09:23:13;;;;;;;4.22;2.15;;;;;;;27.89;64.96;100705.09;5046638;28;20146;-65
2023/08/17 09:25:39;;;;;;;3.90;2.50;;;;;;;27.91;65.11;100700.31;5048435;28;20029;-65
2023/08/17 09:28:14;;;;;;;2.80;2.38;;;;;;;28.10;64.08;100695.41;5042568;28;20044;-65
2023/08/17 09:31:00;;;;;;;3.33;2.58;;;;;;;28.04;62.91;100697.22;5039329;28;20108;-65
2023/08/17 09:33:28;;;;;;;2.72;2.22;;;;;;;28.08;62.37;100692.97;5038818;28;20111;-66
2023/08/17 09:35:55;;;;;;;2.25;2.05;;;;;;;28.04;63.36;100689.19;5031097;28;20040;-65
2023/08/17 09:38:21;;;;;;;3.05;1.85;;;;;;;28.01;62.87;100687.03;5033952;28;20040;-65
2023/08/17 09:40:50;;;;;;;2.10;2.00;;;;;;;27.95;62.71;100687.22;5039316;28;20400;-66
2023/08/17 09:43:17;;;;;;;1.95;1.80;;;;;;;27.90;61.97;100693.34;5030450;28;20036;-65
2023/08/17 09:45:46;;;;;;;2.28;1.90;;;;;;;27.93;61.22;100682.13;5036554;28;20037;-65
2023/08/17 09:48:15;;;;;;;2.25;1.88;;;;;;;27.98;60.58;100690.19;5040346;28;20497;-65
2023/08/17 09:50:40;;;;;;;2.55;2.08;;;;;;;27.99;60.30;100688.34;5047508;28;20060;-65
2023/08/17 09:53:05;;;;;;;2.28;2.08;;;;;;;28.08;59.49;100689.50;5042861;28;20069;-67
2023/08/17 09:55:34;;;;;;;3.10;2.83;;;;;;;28.05;59.94;100687.31;5040125;28;20041;-66
2023/08/17 09:58:00;;;;;;;4.45;2.10;;;;;;;28.00;60.21;100688.06;5033816;28;20082;-65
2023/08/17 10:00:27;;;;;;;6.47;1.58;;;;;;;28.06;59.31;100691.63;5036828;28;20056;-65
2023/08/17 10:02:53;;;;;;;3.80;1.92;;;;;;;28.26;58.29;100682.97;5053470;28;20036;-65
2023/08/17 10:05:20;;;;;;;2.72;1.77;;;;;;;28.22;58.35;100684.56;5034091;28;20037;-65
2023/08/17 10:07:56;;;;;;;2.70;2.17;;;;;;;28.09;59.39;100678.53;5030406;28;20030;-65
2023/08/17 10:10:26;;;;;;;3.58;1.73;;;;;;;28.07;58.15;100672.63;5040652;28;20040;-67
2023/08/17 10:13:07;;;;;;;3.08;2.03;;;;;;;28.07;58.62;100667.25;5046885;28;20395;-67
2023/08/17 10:15:49;;;;;;;1.98;1.77;;;;;;;27.99;59.92;100673.06;5044877;28;20025;-66
2023/08/17 10:18:59;;;;;;;2.45;1.70;;;;;;;28.03;56.68;100671.50;5040510;28;20040;-65
2023/08/17 10:21:43;;;;;;;3.00;2.33;;;;;;;28.04;56.74;100669.63;5042525;28;20052;-65
2023/08/17 10:24:09;;;;;;;3.50;2.05;;;;;;;28.08;56.74;100673.41;5046206;28;20033;-65
2023/08/17 10:26:34;;;;;;;2.13;1.35;;;;;;;28.14;56.39;100668.91;5047590;28;20032;-65
2023/08/17 10:29:02;;;;;;;4.20;1.98;;;;;;;28.03;56.60;100676.84;5045782;28;20026;-65
2023/08/17 10:31:29;;;;;;;3.13;2.35;;;;;;;28.02;56.65;100669.09;5047438;28;20032;-65
2023/08/17 10:33:56;;;;;;;4.22;2.25;;;;;;;28.02;56.87;100669.88;5043401;28;20476;-64
2023/08/17 10:36:22;;;;;;;2.58;2.38;;;;;;;28.18;56.55;100662.00;5042400;28;20058;-64
2023/08/17 10:38:47;;;;;;;4.35;2.60;;;;;;;28.21;56.27;100661.47;5041855;28;20041;-65
2023/08/17 10:41:14;;;;;;;6.63;2.47;;;;;;;28.14;56.62;100653.66;5039990;28;20047;-65
2023/08/17 10:43:56;;;;;;;3.20;2.53;;;;;;;28.09;55.89;100653.59;5042589;28;20093;-65
2023/08/17 10:46:32;;;;;;;3.15;2.40;;;;;;;28.16;56.79;100666.78;5035429;28;20060;-65
2023/08/17 10:49:02;;;;;;;2.60;2.33;;;;;;;27.87;57.69;100663.63;5040854;28;20028;-66
2023/08/17 10:51:28;;;;;;;3.17;2.00;;;;;;;27.81;57.85;100652.03;5045897;28;20021;-66
2023/08/17 10:53:53;;;;;;;3.05;2.50;;;;;;;28.07;57.04;100651.19;5039288;28;20400;-66
2023/08/17 10:56:18;;;;;;;2.67;2.47;;;;;;;28.18;57.93;100651.28;5052229;28;20556;-65
2023/08/17 10:58:44;;;;;;;3.53;2.28;;;;;;;28.28;58.68;100648.72;5040151;28;20163;-65
2023/08/17 11:01:10;;;;;;;5.45;1.95;;;;;;;28.38;58.42;100656.78;5049800;28;20040;-66
2023/08/17 11:03:36;;;;;;;2.40;2.20;;;;;;;28.31;59.05;100657.03;5046587;28;20029;-66
2023/08/17 11:06:17;;;;;;;2.60;2.38;;;;;;;28.19;59.46;100655.56;5051507;28;20029;-67
2023/08/17 11:08:54;;;;;;;4.00;2.58;;;;;;;28.22;59.45;100652.41;5046563;28;20510;-66
2023/08/17 11:11:21;;;;;;;2.60;2.17;;;;;;;28.26;59.67;100645.47;5057797;28;20033;-66
2023/08/17 11:13:48;;;;;;;2.20;2.00;;;;;;;28.29;59.04;100644.97;5058015;28;20032;-66
2023/08/17 11:16:19;;;;;;;2.70;1.88;;;;;;;28.30;57.16;100646.56;5045366;28;20086;-66
2023/08/17 11:18:45;;;;;;;3.42;2.22;;;;;;;28.41;55.79;100640.19;5049614;28;20029;-66
2023/08/17 11:21:11;;;;;;;2.58;1.90;;;;;;;28.50;54.55;100638.66;5052268;28;20020;-66
2023/08/17 11:23:37;;;;;;;2.92;1.92;;;;;;;28.43;55.20;100635.38;5047007;28;20473;-66